createdAt,value
2019-04-07T00:02:22.421Z,18.10
2019-04-07T00:04:52.292Z,23.23
2019-04-07T00:07:21.944Z,19.37
2019-04-07T00:09:51.559Z,18.20
2019-04-07T00:12:21.172Z,20.20
2019-04-07T00:14:51.362Z,22.77
2019-04-07T00:17:21.133Z,20.17
2019-04-07T00:19:50.784Z,22.50
2019-04-07T00:22:20.951Z,20.83
2019-04-07T00:24:50.569Z,20.50
2019-04-07T00:27:20.219Z,19.47
2019-04-07T00:29:49.843Z,20.57
2019-04-07T00:32:20.005Z,22.67
2019-04-07T00:34:49.631Z,19.80
2019-04-07T00:37:19.244Z,20.67
2019-04-07T00:39:48.857Z,21.13
2019-04-07T00:42:18.464Z,20.30
2019-04-07T00:44:48.164Z,21.90
2019-04-07T00:47:17.801Z,21.97
2019-04-07T00:49:47.574Z,23.33
2019-04-07T00:52:19.458Z,22.87
2019-04-07T00:54:49.135Z,19.63
2019-04-07T00:57:18.763Z,20.97
2019-04-07T00:59:48.839Z,19.70
2019-04-07T01:02:18.590Z,22.37
2019-04-07T01:04:48.211Z,23.50
2019-04-07T01:07:17.941Z,20.53
2019-04-07T01:09:47.969Z,19.60
2019-04-07T01:12:18.164Z,20.63
2019-04-07T01:14:47.950Z,18.77
2019-04-07T01:17:17.897Z,18.47
2019-04-07T01:19:47.524Z,21.40
2019-04-07T01:22:17.725Z,19.73
2019-04-07T01:24:47.383Z,19.23
2019-04-07T01:27:17.015Z,20.03
2019-04-07T01:29:46.635Z,22.50
2019-04-07T01:32:16.260Z,20.07
2019-04-07T01:34:45.882Z,21.10
2019-04-07T01:37:15.521Z,21.27
2019-04-07T01:39:45.131Z,21.67
2019-04-07T01:42:32.305Z,23.33
2019-04-07T01:45:30.237Z,22.47
2019-04-07T01:48:09.239Z,25.93
2019-04-07T01:50:57.114Z,19.70
2019-04-07T01:53:44.490Z,20.20
2019-04-07T01:56:42.691Z,30.83
2019-04-07T01:59:41.062Z,26.60
2019-04-07T02:02:29.543Z,28.50
2019-04-07T02:05:30.111Z,25.67
2019-04-07T02:08:15.496Z,19.83
2019-04-07T02:11:07.127Z,24.10
2019-04-07T02:13:55.817Z,19.77
2019-04-07T02:16:50.180Z,21.93
2019-04-07T02:19:26.659Z,21.50
2019-04-07T02:22:21.165Z,24.97
2019-04-07T02:24:57.561Z,25.23
2019-04-07T02:27:37.289Z,20.00
2019-04-07T02:30:31.386Z,25.67
2019-04-07T02:33:22.697Z,29.43
2019-04-07T02:36:15.623Z,21.53
2019-04-07T02:38:38.950Z,25.50
2019-04-07T02:41:16.499Z,22.10
2019-04-07T02:44:09.295Z,29.67
2019-04-07T02:47:00.900Z,27.43
2019-04-07T02:50:01.741Z,25.40
2019-04-07T02:52:49.215Z,25.57
2019-04-07T02:55:47.085Z,23.27
2019-04-07T02:58:35.862Z,26.80
2019-04-07T03:01:24.022Z,24.93
2019-04-07T03:04:07.827Z,21.00
2019-04-07T03:06:54.759Z,24.00
2019-04-07T03:09:49.325Z,23.10
2019-04-07T03:12:53.122Z,24.27
2019-04-07T03:15:40.875Z,19.40
2019-04-07T03:18:38.989Z,22.30
2019-04-07T03:21:31.083Z,22.03
2019-04-07T03:24:19.674Z,24.83
2019-04-07T03:27:06.668Z,25.10
2019-04-07T03:29:51.188Z,24.63
2019-04-07T03:32:45.787Z,28.60
2019-04-07T03:35:30.554Z,23.67
2019-04-07T03:38:21.317Z,24.53
2019-04-07T03:41:12.571Z,27.60
2019-04-07T03:44:03.908Z,21.13
2019-04-07T03:46:50.864Z,24.57
2019-04-07T03:49:42.157Z,22.50
2019-04-07T03:52:33.972Z,22.17
2019-04-07T03:55:35.208Z,23.80
2019-04-07T03:58:16.761Z,24.80
2019-04-07T04:01:33.642Z,23.97
2019-04-07T04:04:24.358Z,23.07
2019-04-07T04:07:22.981Z,26.47
2019-04-07T04:09:53.656Z,22.10
2019-04-07T04:12:49.713Z,22.53
2019-04-07T04:15:26.296Z,25.07
2019-04-07T04:17:55.997Z,20.90
2019-04-07T04:20:25.591Z,22.63
2019-04-07T04:22:55.219Z,25.33
2019-04-07T04:25:24.810Z,23.87
2019-04-07T04:27:55.042Z,22.67
2019-04-07T04:30:25.661Z,21.27
2019-04-07T04:32:55.451Z,23.23
2019-04-07T04:35:25.070Z,24.33
2019-04-07T04:37:55.523Z,22.27
2019-04-07T04:40:26.033Z,22.33
2019-04-07T04:42:55.621Z,21.57
2019-04-07T04:45:25.261Z,24.07
2019-04-07T04:47:56.064Z,25.40
2019-04-07T04:50:25.875Z,22.30
2019-04-07T04:52:55.412Z,24.23
2019-04-07T04:55:25.484Z,26.53
2019-04-07T04:57:55.155Z,28.53
2019-04-07T05:00:24.746Z,26.00
2019-04-07T05:02:54.371Z,25.43
2019-04-07T05:05:24.376Z,24.20
2019-04-07T05:08:00.817Z,22.67
2019-04-07T05:10:25.333Z,29.13
2019-04-07T05:12:55.007Z,26.13
2019-04-07T05:15:24.666Z,27.10
2019-04-07T05:17:54.834Z,24.17
2019-04-07T05:20:25.175Z,27.27
2019-04-07T05:22:54.792Z,26.80
2019-04-07T05:25:24.956Z,27.40
2019-04-07T05:27:54.682Z,28.60
2019-04-07T05:30:24.270Z,28.13
2019-04-07T05:32:54.491Z,23.77
2019-04-07T05:35:24.121Z,27.97
2019-04-07T05:38:02.287Z,23.20
2019-04-07T05:40:25.636Z,31.23
2019-04-07T05:42:55.523Z,24.60
2019-04-07T05:45:25.444Z,26.10
2019-04-07T05:47:55.426Z,26.27
2019-04-07T05:50:27.443Z,24.30
2019-04-07T05:52:56.542Z,25.60
2019-04-07T05:55:26.136Z,26.27
2019-04-07T05:57:55.791Z,24.90
2019-04-07T06:00:25.994Z,24.20
2019-04-07T06:02:56.055Z,27.93
2019-04-07T06:05:25.719Z,26.87
2019-04-07T06:07:55.838Z,28.23
2019-04-07T06:10:28.010Z,30.43
2019-04-07T06:12:57.376Z,31.20
2019-04-07T06:15:27.019Z,24.77
2019-04-07T06:18:00.560Z,28.67
2019-04-07T06:20:28.010Z,25.50
2019-04-07T06:22:57.629Z,25.47
2019-04-07T06:25:27.391Z,30.30
2019-04-07T06:27:57.725Z,30.67
2019-04-07T06:30:29.963Z,27.33
2019-04-07T06:32:58.941Z,27.10
2019-04-07T06:35:28.569Z,30.93
2019-04-07T06:38:04.913Z,25.00
2019-04-07T06:40:29.515Z,28.87
2019-04-07T06:42:59.193Z,31.10
2019-04-07T06:45:35.053Z,27.70
2019-04-07T06:48:07.711Z,30.23
2019-04-07T06:50:57.834Z,26.17
2019-04-07T06:53:52.497Z,23.33
2019-04-07T06:56:35.035Z,27.10
2019-04-07T06:59:29.696Z,25.13
2019-04-07T07:02:17.449Z,23.30
2019-04-07T07:05:05.176Z,30.87
2019-04-07T07:07:45.883Z,24.17
2019-04-07T07:10:38.980Z,28.53
2019-04-07T07:13:35.772Z,24.63
2019-04-07T07:16:26.809Z,23.67
2019-04-07T07:19:14.164Z,23.93
2019-04-07T07:22:15.500Z,21.93
2019-04-07T07:24:45.910Z,20.20
2019-04-07T07:27:15.350Z,23.80
2019-04-07T07:29:45.968Z,20.67
2019-04-07T07:32:16.967Z,18.93
2019-04-07T07:34:46.679Z,19.03
2019-04-07T07:37:16.284Z,22.37
2019-04-07T07:39:46.983Z,21.63
2019-04-07T07:42:19.095Z,18.27
2019-04-07T07:44:48.345Z,20.60
2019-04-07T07:47:20.900Z,21.67
2019-04-07T07:49:49.770Z,24.63
2019-04-07T07:52:21.561Z,20.93
2019-04-07T07:54:50.904Z,20.57
2019-04-07T07:57:23.448Z,18.70
2019-04-07T07:59:52.049Z,20.93
2019-04-07T08:02:21.966Z,20.13
2019-04-07T08:04:52.768Z,20.80
2019-04-07T08:07:23.593Z,17.93
2019-04-07T08:09:54.408Z,20.00
2019-04-07T08:12:25.391Z,21.23
2019-04-07T08:14:57.162Z,18.57
2019-04-07T08:17:27.095Z,18.73
2019-04-07T08:19:57.778Z,17.77
2019-04-07T08:22:33.597Z,17.60
2019-04-07T08:24:58.831Z,21.63
2019-04-07T08:27:31.230Z,20.00
2019-04-07T08:29:59.732Z,17.40
2019-04-07T08:32:31.985Z,18.17
2019-04-07T08:35:03.265Z,20.27
2019-04-07T08:37:31.945Z,21.40
2019-04-07T08:40:05.021Z,19.80
2019-04-07T08:42:32.898Z,18.60
2019-04-07T08:45:03.250Z,18.27
2019-04-07T08:47:33.452Z,19.03
2019-04-07T08:50:03.240Z,17.23
2019-04-07T08:52:33.187Z,19.80
2019-04-07T08:55:03.061Z,16.97
2019-04-07T08:57:32.673Z,16.13
2019-04-07T09:00:02.322Z,15.97
2019-04-07T09:02:32.226Z,19.13
2019-04-07T09:05:02.713Z,15.87
2019-04-07T09:07:33.384Z,13.70
2019-04-07T09:10:04.062Z,16.80
2019-04-07T09:12:33.971Z,15.87
2019-04-07T09:15:05.142Z,17.00
2019-04-07T09:17:46.037Z,12.63
2019-04-07T09:20:26.598Z,17.70
2019-04-07T09:23:26.355Z,12.57
2019-04-07T09:26:12.486Z,13.17
2019-04-07T09:29:06.736Z,14.67
2019-04-07T09:31:56.606Z,12.10
2019-04-07T09:34:43.706Z,12.30
2019-04-07T09:37:26.173Z,13.27
2019-04-07T09:40:10.439Z,10.70
2019-04-07T09:43:00.953Z,10.70
2019-04-07T09:45:59.969Z,14.23
2019-04-07T09:48:49.975Z,15.00
2019-04-07T09:51:37.631Z,12.27
2019-04-07T09:54:30.857Z,13.90
2019-04-07T09:57:12.517Z,13.27
2019-04-07T10:00:03.789Z,10.87
2019-04-07T10:02:55.287Z,9.60
2019-04-07T10:05:55.969Z,10.57
2019-04-07T10:08:50.276Z,10.20
2019-04-07T10:11:35.101Z,11.17
2019-04-07T10:14:15.019Z,9.23
2019-04-07T10:16:50.671Z,7.53
2019-04-07T10:19:39.212Z,8.70
2019-04-07T10:22:19.802Z,10.03
2019-04-07T10:25:07.482Z,9.27
2019-04-07T10:28:07.325Z,7.40
2019-04-07T10:30:55.025Z,8.13
2019-04-07T10:33:56.185Z,8.03
2019-04-07T10:36:56.795Z,6.83
2019-04-07T10:39:48.405Z,7.23
2019-04-07T10:42:54.695Z,7.93
2019-04-07T10:45:35.074Z,6.90
2019-04-07T10:48:26.939Z,7.83
2019-04-07T10:51:30.855Z,9.00
2019-04-07T10:54:17.613Z,9.93
2019-04-07T10:57:09.962Z,7.30
2019-04-07T10:59:56.903Z,5.60
2019-04-07T11:03:04.763Z,3.43
2019-04-07T11:05:59.343Z,5.50
2019-04-07T11:08:47.808Z,3.30
2019-04-07T11:11:49.178Z,5.27
2019-04-07T11:14:28.298Z,6.20
2019-04-07T11:17:04.818Z,4.60
2019-04-07T11:19:53.334Z,6.60
2019-04-07T11:22:41.850Z,6.63
2019-04-07T11:25:30.557Z,5.17
2019-04-07T11:28:29.036Z,3.07
2019-04-07T11:31:21.207Z,5.47
2019-04-07T11:34:01.415Z,3.13
2019-04-07T11:37:02.185Z,2.57
2019-04-07T11:39:50.689Z,5.40
2019-04-07T11:42:46.042Z,3.80
2019-04-07T11:45:37.795Z,5.13
2019-04-07T11:48:26.318Z,4.33
2019-04-07T11:51:18.490Z,6.07
2019-04-07T11:53:59.890Z,5.53
2019-04-07T11:56:47.249Z,4.07
2019-04-07T11:59:36.111Z,4.03
2019-04-07T12:02:28.419Z,1.83
2019-04-07T12:05:12.650Z,2.40
2019-04-07T12:07:59.682Z,7.03
2019-04-07T12:11:04.688Z,4.03
2019-04-07T12:13:52.561Z,4.08
2019-04-07T12:16:40.215Z,4.10
2019-04-07T12:19:37.698Z,5.55
2019-04-07T12:22:14.306Z,4.72
2019-04-07T12:25:03.366Z,4.80
2019-04-07T12:27:58.119Z,2.63
2019-04-07T12:30:36.939Z,5.93
2019-04-07T12:33:22.946Z,2.10
2019-04-07T12:36:02.005Z,3.30
2019-04-07T12:38:45.346Z,5.00
2019-04-07T12:41:35.769Z,4.77
2019-04-07T12:44:23.382Z,2.43
2019-04-07T12:47:18.168Z,3.70
2019-04-07T12:50:21.908Z,2.60
2019-04-07T12:53:10.455Z,2.30
2019-04-07T12:56:02.490Z,2.13
2019-04-07T12:59:09.158Z,4.43
2019-04-07T13:02:06.866Z,4.07
2019-04-07T13:04:40.770Z,2.13
2019-04-07T13:07:20.403Z,8.47
2019-04-07T13:10:05.329Z,3.43
2019-04-07T13:12:58.264Z,3.80
2019-04-07T13:15:40.030Z,4.67
2019-04-07T13:18:31.589Z,3.00
2019-04-07T13:21:24.851Z,1.80
2019-04-07T13:24:33.045Z,2.63
2019-04-07T13:27:09.098Z,1.83
2019-04-07T13:29:54.295Z,2.67
2019-04-07T13:32:39.359Z,1.90
2019-04-07T13:35:18.251Z,2.77
2019-04-07T13:38:07.686Z,5.10
2019-04-07T13:40:48.088Z,2.40
2019-04-07T13:43:32.823Z,3.67
2019-04-07T13:46:31.886Z,2.63
2019-04-07T13:49:17.986Z,2.50
2019-04-07T13:51:59.091Z,2.33
2019-04-07T13:55:05.152Z,2.43
2019-04-07T13:58:00.505Z,3.67
2019-04-07T14:00:48.231Z,3.50
2019-04-07T14:03:41.736Z,4.30
2019-04-07T14:06:19.478Z,2.13
2019-04-07T14:09:16.933Z,6.37
2019-04-07T14:12:10.186Z,2.47
2019-04-07T14:14:54.861Z,2.73
2019-04-07T14:17:50.339Z,2.13
2019-04-07T14:20:42.446Z,2.83
2019-04-07T14:23:34.257Z,3.73
2019-04-07T14:26:22.238Z,3.50
2019-04-07T14:29:09.428Z,2.07
2019-04-07T14:32:04.513Z,3.17
2019-04-07T14:34:46.557Z,4.80
2019-04-07T14:37:26.463Z,3.40
2019-04-07T14:40:05.179Z,7.53
2019-04-07T14:42:44.449Z,2.57
2019-04-07T14:45:30.328Z,2.83
2019-04-07T14:48:05.423Z,2.40
2019-04-07T14:50:50.063Z,2.03
2019-04-07T14:53:40.906Z,3.77
2019-04-07T14:56:36.795Z,1.50
2019-04-07T14:59:27.299Z,4.67
2019-04-07T15:02:00.340Z,1.97
2019-04-07T15:04:33.031Z,2.27
2019-04-07T15:07:18.107Z,2.30
2019-04-07T15:09:53.520Z,2.03
2019-04-07T15:12:42.530Z,7.40
2019-04-07T15:15:12.171Z,5.07
2019-04-07T15:17:42.456Z,5.50
2019-04-07T15:20:14.359Z,3.20
2019-04-07T15:22:45.870Z,4.07
2019-04-07T15:25:15.207Z,2.83
2019-04-07T15:27:45.596Z,3.73
2019-04-07T15:30:16.757Z,4.00
2019-04-07T15:32:46.564Z,4.80
2019-04-07T15:35:16.529Z,2.73
2019-04-07T15:37:46.632Z,2.63
2019-04-07T15:40:16.332Z,6.00
2019-04-07T15:42:49.265Z,6.53
2019-04-07T15:45:17.377Z,5.07
2019-04-07T15:47:51.288Z,3.63
2019-04-07T15:50:19.829Z,3.97
2019-04-07T15:52:49.798Z,2.63
2019-04-07T15:55:19.498Z,3.23
2019-04-07T15:57:51.132Z,5.87
2019-04-07T16:00:21.605Z,3.00
2019-04-07T16:02:52.630Z,4.83
2019-04-07T16:05:22.752Z,4.33
2019-04-07T16:07:54.388Z,5.67
2019-04-07T16:10:24.744Z,5.30
2019-04-07T16:12:57.780Z,5.67
2019-04-07T16:15:26.167Z,5.63
2019-04-07T16:17:56.652Z,4.10
2019-04-07T16:20:33.532Z,4.53
2019-04-07T16:22:57.612Z,5.47
2019-04-07T16:25:28.235Z,3.70
2019-04-07T16:27:58.815Z,4.13
2019-04-07T16:30:28.618Z,3.03
2019-04-07T16:33:01.936Z,4.30
2019-04-07T16:35:29.880Z,6.30
2019-04-07T16:38:01.215Z,6.47
2019-04-07T16:40:31.636Z,5.50
2019-04-07T16:43:11.613Z,3.97
2019-04-07T16:45:33.755Z,6.20
2019-04-07T16:48:04.993Z,5.40
2019-04-07T16:50:35.061Z,3.73
2019-04-07T16:53:06.849Z,5.60
2019-04-07T16:55:40.168Z,4.37
2019-04-07T16:58:11.522Z,4.60
2019-04-07T17:00:41.906Z,4.10
2019-04-07T17:03:11.744Z,4.03
2019-04-07T17:05:41.355Z,4.77
2019-04-07T17:08:10.970Z,10.27
2019-04-07T17:10:41.186Z,5.07
2019-04-07T17:13:19.869Z,5.67
2019-04-07T17:15:43.155Z,4.93
2019-04-07T17:18:35.597Z,5.17
2019-04-07T17:21:09.440Z,5.57
2019-04-07T17:23:39.722Z,6.93
2019-04-07T17:26:09.557Z,5.97
2019-04-07T17:28:40.047Z,5.30
2019-04-07T17:31:11.614Z,6.87
2019-04-07T17:33:41.599Z,6.87
2019-04-07T17:36:16.212Z,8.20
2019-04-07T17:38:58.501Z,6.73
2019-04-07T17:41:29.062Z,5.93
2019-04-07T17:44:20.210Z,6.67
2019-04-07T17:47:13.662Z,8.47
2019-04-07T17:50:02.374Z,5.63
2019-04-07T17:52:40.867Z,6.83
2019-04-07T17:55:28.618Z,11.57
2019-04-07T17:58:17.326Z,7.03
2019-04-07T18:01:01.733Z,6.33
2019-04-07T18:03:50.819Z,7.50
2019-04-07T18:07:02.084Z,10.00
2019-04-07T18:09:54.407Z,8.30
2019-04-07T18:12:49.749Z,6.00
2019-04-07T18:15:36.661Z,8.00
2019-04-07T18:18:28.265Z,5.33
2019-04-07T18:21:28.882Z,6.87
2019-04-07T18:24:18.059Z,7.37
2019-04-07T18:27:05.767Z,6.70
2019-04-07T18:29:42.861Z,5.67
2019-04-07T18:32:30.742Z,6.20
2019-04-07T18:35:15.237Z,6.63
2019-04-07T18:37:57.861Z,7.50
2019-04-07T18:41:00.326Z,7.70
2019-04-07T18:44:02.442Z,5.53
2019-04-07T18:46:50.145Z,9.93
2019-04-07T18:49:33.798Z,6.70
2019-04-07T18:52:22.753Z,7.07
2019-04-07T18:55:30.039Z,8.10
2019-04-07T18:58:13.054Z,6.23
2019-04-07T19:01:12.592Z,5.87
2019-04-07T19:03:53.383Z,8.87
2019-04-07T19:06:46.552Z,10.43
2019-04-07T19:09:25.911Z,9.53
2019-04-07T19:12:16.772Z,5.90
2019-04-07T19:15:05.598Z,6.07
2019-04-07T19:18:01.915Z,6.97
2019-04-07T19:20:58.943Z,7.03
2019-04-07T19:23:50.818Z,6.23
2019-04-07T19:26:39.419Z,5.80
2019-04-07T19:29:46.160Z,5.77
2019-04-07T19:32:33.354Z,6.33
2019-04-07T19:35:28.256Z,6.90
2019-04-07T19:38:23.544Z,5.90
2019-04-07T19:41:11.067Z,6.63
2019-04-07T19:43:58.483Z,6.40
2019-04-07T19:47:04.975Z,4.53
2019-04-07T19:49:51.258Z,4.80
2019-04-07T19:52:42.933Z,6.70
2019-04-07T19:55:30.335Z,8.03
2019-04-07T19:58:21.838Z,7.87
2019-04-07T20:01:13.235Z,6.80
2019-04-07T20:04:12.662Z,8.83
2019-04-07T20:07:18.935Z,6.83
2019-04-07T20:10:26.942Z,7.87
2019-04-07T20:13:05.604Z,7.70
2019-04-07T20:15:52.016Z,8.20
2019-04-07T20:18:44.816Z,8.57
2019-04-07T20:21:53.348Z,9.57
2019-04-07T20:24:29.551Z,8.47
2019-04-07T20:27:17.554Z,8.33
2019-04-07T20:29:59.068Z,7.63
2019-04-07T20:32:35.893Z,7.27
2019-04-07T20:35:18.793Z,8.40
2019-04-07T20:38:08.131Z,9.70
2019-04-07T20:40:52.022Z,7.47
2019-04-07T20:43:40.587Z,7.63
2019-04-07T20:46:41.698Z,9.27
2019-04-07T20:49:32.819Z,6.33
2019-04-07T20:52:25.337Z,6.87
2019-04-07T20:55:13.576Z,5.80
2019-04-07T20:58:18.788Z,7.30
2019-04-07T21:01:10.080Z,7.40
2019-04-07T21:03:52.953Z,5.67
2019-04-07T21:06:42.138Z,7.00
2019-04-07T21:09:32.302Z,6.53
2019-04-07T21:12:17.337Z,7.43
2019-04-07T21:14:53.000Z,6.97
2019-04-07T21:17:41.397Z,7.37
2019-04-07T21:20:37.233Z,9.50
2019-04-07T21:23:28.778Z,6.77
2019-04-07T21:26:11.735Z,7.00
2019-04-07T21:29:00.270Z,10.07
2019-04-07T21:31:47.727Z,9.10
2019-04-07T21:34:42.882Z,8.30
2019-04-07T21:37:47.449Z,7.30
2019-04-07T21:40:21.016Z,8.80
2019-04-07T21:43:28.471Z,8.93
2019-04-07T21:46:23.318Z,8.20
2019-04-07T21:49:11.839Z,8.40
2019-04-07T21:52:18.685Z,7.30
2019-04-07T21:55:06.007Z,8.83
2019-04-07T21:57:57.097Z,8.40
2019-04-07T22:00:43.335Z,8.23
2019-04-07T22:03:37.681Z,8.23
2019-04-07T22:06:26.532Z,7.97
2019-04-07T22:09:04.721Z,10.00
2019-04-07T22:11:34.673Z,7.13
2019-04-07T22:14:07.353Z,9.17
2019-04-07T22:16:35.950Z,8.53
2019-04-07T22:19:09.340Z,11.47
2019-04-07T22:21:36.972Z,8.00
2019-04-07T22:24:06.871Z,7.40
2019-04-07T22:26:37.078Z,7.70
2019-04-07T22:29:07.666Z,6.63
2019-04-07T22:31:49.889Z,7.63
2019-04-07T22:34:19.507Z,8.33
2019-04-07T22:36:49.651Z,6.87
2019-04-07T22:39:19.377Z,7.30
2019-04-07T22:41:49.146Z,6.60
2019-04-07T22:44:20.413Z,7.10
2019-04-07T22:46:52.105Z,7.37
2019-04-07T22:49:21.363Z,6.30
2019-04-07T22:51:52.665Z,6.80
2019-04-07T22:54:22.287Z,6.60
2019-04-07T22:56:52.248Z,7.00
2019-04-07T22:59:21.944Z,7.33
2019-04-07T23:01:51.555Z,6.40
2019-04-07T23:04:21.181Z,5.43
2019-04-07T23:06:50.799Z,4.97
2019-04-07T23:09:20.448Z,5.13
2019-04-07T23:11:50.306Z,5.10
2019-04-07T23:14:19.985Z,5.80
2019-04-07T23:16:49.585Z,4.80
2019-04-07T23:19:19.236Z,3.80
2019-04-07T23:21:49.133Z,4.80
2019-04-07T23:24:19.234Z,5.33
2019-04-07T23:26:48.962Z,2.80
2019-04-07T23:29:18.592Z,3.03
2019-04-07T23:31:48.309Z,2.50
2019-04-07T23:34:18.963Z,2.33
2019-04-07T23:36:48.748Z,2.50
2019-04-07T23:39:19.402Z,2.47
2019-04-07T23:41:49.147Z,2.20
2019-04-07T23:44:18.732Z,2.37
2019-04-07T23:46:48.904Z,1.87
2019-04-07T23:49:19.082Z,1.90
2019-04-07T23:51:48.748Z,2.33
2019-04-07T23:54:18.391Z,1.97
2019-04-07T23:56:48.065Z,3.73
2019-04-07T23:59:18.611Z,2.03
